createdAt,value
2018-04-10T00:00:02.442Z,9.80
2018-04-10T00:02:29.406Z,9.70
2018-04-10T00:04:56.278Z,9.70
2018-04-10T00:07:23.810Z,9.60
2018-04-10T00:09:51.434Z,9.60
2018-04-10T00:12:18.301Z,9.60
2018-04-10T00:14:45.061Z,9.60
2018-04-10T00:17:11.816Z,9.60
2018-04-10T00:19:38.668Z,9.50
2018-04-10T00:22:05.273Z,9.60
2018-04-10T00:24:32.118Z,9.50
2018-04-10T00:26:58.895Z,9.50
2018-04-10T00:29:25.646Z,9.50
2018-04-10T00:31:52.620Z,9.50
2018-04-10T00:34:19.474Z,9.50
2018-04-10T00:36:46.135Z,9.40
2018-04-10T00:39:13.004Z,9.40
2018-04-10T00:41:40.348Z,9.40
2018-04-10T00:44:07.357Z,9.40
2018-04-10T00:46:34.115Z,9.30
2018-04-10T00:49:00.866Z,9.30
2018-04-10T00:51:27.755Z,9.30
2018-04-10T00:53:54.499Z,9.20
2018-04-10T00:56:21.366Z,9.20
2018-04-10T00:58:49.318Z,9.20
2018-04-10T01:01:16.880Z,9.20
2018-04-10T01:03:43.697Z,9.10
2018-04-10T01:06:10.612Z,9.10
2018-04-10T01:08:37.326Z,9.10
2018-04-10T01:11:05.941Z,9.10
2018-04-10T01:13:32.701Z,9.10
2018-04-10T01:15:59.464Z,9.10
2018-04-10T01:18:26.550Z,9.10
2018-04-10T01:20:53.059Z,9.10
2018-04-10T01:23:19.864Z,9.00
2018-04-10T01:25:46.630Z,9.00
2018-04-10T01:28:13.201Z,9.00
2018-04-10T01:30:40.764Z,9.00
2018-04-10T01:33:07.526Z,9.00
2018-04-10T01:35:34.277Z,9.00
2018-04-10T01:38:01.149Z,9.00
2018-04-10T01:40:27.919Z,9.00
2018-04-10T01:42:54.773Z,9.00
2018-04-10T01:45:21.527Z,9.00
2018-04-10T01:47:47.977Z,9.00
2018-04-10T01:50:14.871Z,9.00
2018-04-10T01:52:41.433Z,8.90
2018-04-10T01:55:08.371Z,8.90
2018-04-10T01:57:35.227Z,8.90
2018-04-10T02:00:02.124Z,8.80
2018-04-10T02:02:29.907Z,8.80
2018-04-10T02:04:57.123Z,8.70
2018-04-10T02:07:24.556Z,8.60
2018-04-10T02:13:07.378Z,8.60
2018-04-10T02:18:43.982Z,8.50
2018-04-10T02:21:10.512Z,8.50
2018-04-10T02:23:37.083Z,8.40
2018-04-10T02:26:03.743Z,8.40
2018-04-10T02:28:31.119Z,8.30
2018-04-10T02:30:57.783Z,8.30
2018-04-10T02:33:24.441Z,8.30
2018-04-10T02:35:50.863Z,8.30
2018-04-10T02:38:17.461Z,8.30
2018-04-10T02:40:44.973Z,8.30
2018-04-10T02:43:12.406Z,8.30
2018-04-10T02:45:39.063Z,8.30
2018-04-10T02:48:05.648Z,8.30
2018-04-10T02:50:32.599Z,8.30
2018-04-10T02:52:59.098Z,8.30
2018-04-10T02:55:25.714Z,8.30
2018-04-10T02:57:52.266Z,8.30
2018-04-10T03:00:18.839Z,8.30
2018-04-10T03:02:45.393Z,8.30
2018-04-10T03:05:11.810Z,8.20
2018-04-10T03:07:38.410Z,8.20
2018-04-10T03:10:05.989Z,8.10
2018-04-10T03:12:32.558Z,8.10
2018-04-10T03:14:59.208Z,8.10
2018-04-10T03:17:25.939Z,8.10
2018-04-10T03:19:52.531Z,8.10
2018-04-10T03:22:19.203Z,8.00
2018-04-10T03:24:46.472Z,8.00
2018-04-10T03:27:13.123Z,8.00
2018-04-10T03:29:40.497Z,7.90
2018-04-10T03:32:07.167Z,7.90
2018-04-10T03:34:33.719Z,7.90
2018-04-10T03:37:00.079Z,7.90
2018-04-10T03:39:26.735Z,7.80
2018-04-10T03:41:53.677Z,7.80
2018-04-10T03:44:20.253Z,7.80
2018-04-10T03:46:46.914Z,7.70
2018-04-10T03:49:13.587Z,7.70
2018-04-10T03:51:40.248Z,7.70
2018-04-10T03:54:06.745Z,7.70
2018-04-10T03:56:34.704Z,7.60
2018-04-10T03:59:01.344Z,7.60
2018-04-10T04:01:28.144Z,7.60
2018-04-10T04:03:55.598Z,7.60
2018-04-10T04:06:22.258Z,7.60
2018-04-10T04:08:48.930Z,7.60
2018-04-10T04:11:15.825Z,7.60
2018-04-10T04:13:43.374Z,7.60
2018-04-10T04:16:22.187Z,7.50
2018-04-10T04:19:01.141Z,7.50
2018-04-10T04:21:40.165Z,7.50
2018-04-10T04:24:07.329Z,7.50
2018-04-10T04:26:34.534Z,7.50
2018-04-10T04:29:02.487Z,7.60
2018-04-10T04:31:29.239Z,7.50
2018-04-10T04:33:56.139Z,7.60
2018-04-10T04:36:22.602Z,7.60
2018-04-10T04:38:49.354Z,7.60
2018-04-10T04:41:15.973Z,7.70
2018-04-10T04:43:43.072Z,7.70
2018-04-10T04:46:10.779Z,7.80
2018-04-10T04:48:37.527Z,7.90
2018-04-10T04:51:04.491Z,8.00
2018-04-10T04:53:31.367Z,8.10
2018-04-10T04:55:58.195Z,8.10
2018-04-10T05:00:57.381Z,8.30
2018-04-10T05:03:25.219Z,8.40
2018-04-10T05:05:53.050Z,8.40
2018-04-10T05:08:19.857Z,8.60
2018-04-10T05:10:46.685Z,8.70
2018-04-10T05:13:13.648Z,8.80
2018-04-10T05:15:41.184Z,8.90
2018-04-10T05:18:07.955Z,9.00
2018-04-10T05:20:34.718Z,9.30
2018-04-10T05:23:01.449Z,10.20
2018-04-10T05:25:29.228Z,12.90
2018-04-10T05:27:56.953Z,14.30
2018-04-10T05:30:23.638Z,14.20
2018-04-10T05:32:50.615Z,15.60
2018-04-10T05:35:17.373Z,16.80
2018-04-10T05:37:45.068Z,17.90
2018-04-10T05:40:12.055Z,18.90
2018-04-10T05:42:39.370Z,21.00
2018-04-10T05:45:06.177Z,20.90
2018-04-10T05:47:32.937Z,22.00
2018-04-10T05:49:59.797Z,22.80
2018-04-10T05:52:26.569Z,23.60
2018-04-10T05:54:56.942Z,24.40
2018-04-10T05:57:24.682Z,25.60
2018-04-10T05:59:51.456Z,25.60
2018-04-10T06:02:18.295Z,26.30
2018-04-10T06:04:45.174Z,26.90
2018-04-10T06:07:11.630Z,27.50
2018-04-10T06:09:38.396Z,28.10
2018-04-10T06:12:05.018Z,28.70
2018-04-10T06:14:31.507Z,29.40
2018-04-10T06:16:58.276Z,29.90
2018-04-10T06:19:25.646Z,30.30
2018-04-10T06:21:53.204Z,30.80
2018-04-10T06:24:20.558Z,31.20
2018-04-10T06:26:48.310Z,31.80
2018-04-10T06:29:15.878Z,32.20
2018-04-10T06:31:42.496Z,32.10
2018-04-10T06:34:08.966Z,32.60
2018-04-10T06:36:35.757Z,33.20
2018-04-10T06:39:02.608Z,33.70
2018-04-10T06:41:29.150Z,34.10
2018-04-10T06:43:55.946Z,34.30
2018-04-10T06:46:23.134Z,34.30
2018-04-10T06:48:49.554Z,34.60
2018-04-10T06:51:15.966Z,34.90
2018-04-10T06:53:42.916Z,35.30
2018-04-10T06:56:09.326Z,35.80
2018-04-10T06:58:35.778Z,36.10
2018-04-10T07:01:02.716Z,36.20
2018-04-10T07:03:29.200Z,36.20
2018-04-10T07:05:56.354Z,36.30
2018-04-10T07:08:22.794Z,36.20
2018-04-10T07:10:49.261Z,36.30
2018-04-10T07:13:15.743Z,36.30
2018-04-10T07:15:42.157Z,36.50
2018-04-10T07:18:08.592Z,36.90
2018-04-10T07:20:35.049Z,37.50
2018-04-10T07:23:01.479Z,37.90
2018-04-10T07:25:28.498Z,38.10
2018-04-10T07:27:54.989Z,38.70
2018-04-10T07:30:22.136Z,39.90
2018-04-10T07:32:48.619Z,39.80
2018-04-10T07:35:15.780Z,40.30
2018-04-10T07:37:42.941Z,40.70
2018-04-10T07:40:10.118Z,40.70
2018-04-10T07:42:37.295Z,40.70
2018-04-10T07:45:04.584Z,40.30
2018-04-10T07:47:31.795Z,39.70
2018-04-10T07:49:58.231Z,39.70
2018-04-10T07:52:25.343Z,39.30
2018-04-10T07:54:51.735Z,39.20
2018-04-10T07:57:18.912Z,38.90
2018-04-10T07:59:45.398Z,39.00
2018-04-10T08:02:13.150Z,39.20
2018-04-10T08:04:40.328Z,39.40
2018-04-10T08:07:07.497Z,39.70
2018-04-10T08:09:34.670Z,39.60
2018-04-10T08:12:01.844Z,39.40
2018-04-10T08:14:29.634Z,38.90
2018-04-10T08:16:56.067Z,38.90
2018-04-10T08:19:23.230Z,39.10
2018-04-10T08:21:50.384Z,38.50
2018-04-10T08:24:16.871Z,38.50
2018-04-10T08:26:44.015Z,38.00
2018-04-10T08:29:10.444Z,38.00
2018-04-10T08:31:36.880Z,37.90
2018-04-10T08:34:03.302Z,37.60
2018-04-10T08:36:29.855Z,36.50
2018-04-10T08:38:56.290Z,36.00
2018-04-10T08:41:22.792Z,35.70
2018-04-10T08:43:49.987Z,34.20
2018-04-10T08:46:16.426Z,34.20
2018-04-10T08:48:42.976Z,33.10
2018-04-10T08:51:10.160Z,29.30
2018-04-10T08:53:36.702Z,29.20
2018-04-10T08:56:04.419Z,26.20
2018-04-10T08:58:30.950Z,26.10
2018-04-10T09:00:58.128Z,24.30
2018-04-10T09:03:25.306Z,23.70
2018-04-10T09:05:51.716Z,23.60
2018-04-10T09:08:18.118Z,23.10
2018-04-10T09:10:44.537Z,22.50
2018-04-10T09:13:11.648Z,21.50
2018-04-10T09:15:38.026Z,21.50
2018-04-10T09:18:04.484Z,21.20
2018-04-10T09:20:30.908Z,20.90
2018-04-10T09:22:57.458Z,20.70
2018-04-10T09:25:23.978Z,20.50
2018-04-10T09:27:50.471Z,20.30
2018-04-10T09:30:17.651Z,20.20
2018-04-10T09:32:44.119Z,20.20
2018-04-10T09:35:10.539Z,20.20
2018-04-10T09:37:37.601Z,20.00
2018-04-10T09:40:04.039Z,20.00
2018-04-10T09:42:30.453Z,20.00
2018-04-10T09:44:57.641Z,19.70
2018-04-10T09:47:24.166Z,19.70
2018-04-10T09:49:51.358Z,19.80
2018-04-10T09:52:17.775Z,19.70
2018-04-10T09:54:44.140Z,19.70
2018-04-10T09:57:11.786Z,19.80
2018-04-10T09:59:38.174Z,19.80
2018-04-10T10:02:04.612Z,19.80
2018-04-10T10:04:31.059Z,19.70
2018-04-10T10:06:57.507Z,19.70
2018-04-10T10:09:23.951Z,19.70
2018-04-10T10:11:50.471Z,19.80
2018-04-10T10:14:17.690Z,19.80
2018-04-10T10:16:44.295Z,19.80
2018-04-10T10:19:11.474Z,19.90
2018-04-10T10:21:38.624Z,19.90
2018-04-10T10:24:05.061Z,19.90
2018-04-10T10:26:31.561Z,19.90
2018-04-10T10:28:57.993Z,19.80
2018-04-10T10:31:24.452Z,19.80
2018-04-10T10:33:50.932Z,19.80
2018-04-10T10:36:18.078Z,19.80
2018-04-10T10:38:44.552Z,19.80
2018-04-10T10:41:11.722Z,19.80
2018-04-10T10:43:38.957Z,19.60
2018-04-10T10:46:05.387Z,19.60
2018-04-10T10:48:31.815Z,19.60
2018-04-10T10:50:59.088Z,19.70
2018-04-10T10:53:25.649Z,19.60
2018-04-10T10:55:52.857Z,19.80
2018-04-10T10:58:19.381Z,19.80
2018-04-10T11:00:45.852Z,19.80
2018-04-10T11:03:12.292Z,19.70
2018-04-10T11:05:38.746Z,19.60
2018-04-10T11:08:05.984Z,19.70
2018-04-10T11:10:32.485Z,19.70
2018-04-10T11:12:58.901Z,19.80
2018-04-10T11:15:26.004Z,19.90
2018-04-10T11:17:52.467Z,19.90
2018-04-10T11:20:18.897Z,19.80
2018-04-10T11:22:45.353Z,19.90
2018-04-10T11:25:11.933Z,20.00
2018-04-10T11:27:38.491Z,20.00
2018-04-10T11:30:04.968Z,20.10
2018-04-10T11:32:31.506Z,20.20
2018-04-10T11:34:58.725Z,20.30
2018-04-10T11:37:25.220Z,20.30
2018-04-10T11:39:52.376Z,20.10
2018-04-10T11:42:18.869Z,20.00
2018-04-10T11:44:45.402Z,19.90
2018-04-10T11:47:11.836Z,19.80
2018-04-10T11:49:38.239Z,19.70
2018-04-10T11:52:05.376Z,19.90
2018-04-10T11:54:31.966Z,19.80
2018-04-10T11:56:59.241Z,19.90
2018-04-10T11:59:25.798Z,19.90
2018-04-10T12:01:52.964Z,20.10
2018-04-10T12:04:20.140Z,20.10
2018-04-10T12:06:47.297Z,20.00
2018-04-10T12:09:13.882Z,19.90
2018-04-10T12:11:40.316Z,19.80
2018-04-10T12:14:07.516Z,19.70
2018-04-10T12:16:33.970Z,19.70
2018-04-10T12:19:00.520Z,19.70
2018-04-10T12:21:26.965Z,19.70
2018-04-10T12:23:54.135Z,19.80
2018-04-10T12:26:21.884Z,19.80
2018-04-10T12:28:48.303Z,19.80
2018-04-10T12:31:14.743Z,19.90
2018-04-10T12:33:41.179Z,20.10
2018-04-10T12:36:08.369Z,20.20
2018-04-10T12:38:34.781Z,20.10
2018-04-10T12:41:01.284Z,20.10
2018-04-10T12:43:27.839Z,19.90
2018-04-10T12:45:55.010Z,19.80
2018-04-10T12:48:22.247Z,19.70
2018-04-10T12:50:48.728Z,19.70
2018-04-10T12:53:15.917Z,19.50
2018-04-10T12:55:42.371Z,19.40
2018-04-10T12:58:09.037Z,19.30
2018-04-10T13:00:35.461Z,19.20
2018-04-10T13:03:02.681Z,19.30
2018-04-10T13:05:29.097Z,19.30
2018-04-10T13:07:55.883Z,19.40
2018-04-10T13:10:22.433Z,19.40
2018-04-10T13:12:49.642Z,19.20
2018-04-10T13:15:16.220Z,19.20
2018-04-10T13:17:42.932Z,19.20
2018-04-10T13:20:09.491Z,19.20
2018-04-10T13:22:36.052Z,19.30
2018-04-10T13:25:02.639Z,19.50
2018-04-10T13:27:29.369Z,19.60
2018-04-10T13:29:56.437Z,19.70
2018-04-10T13:32:22.871Z,19.80
2018-04-10T13:34:49.381Z,19.90
2018-04-10T13:37:16.434Z,19.80
2018-04-10T13:39:42.979Z,19.80
2018-04-10T13:42:09.431Z,19.90
2018-04-10T13:44:36.651Z,20.00
2018-04-10T13:47:03.579Z,20.00
2018-04-10T13:49:30.137Z,19.90
2018-04-10T13:51:56.567Z,19.60
2018-04-10T13:54:22.998Z,19.40
2018-04-10T13:56:49.764Z,19.20
2018-04-10T13:59:16.169Z,19.10
2018-04-10T14:01:43.280Z,19.00
2018-04-10T14:04:09.794Z,18.90
2018-04-10T14:06:36.332Z,18.80
2018-04-10T14:09:02.886Z,18.80
2018-04-10T14:11:29.598Z,18.80
2018-04-10T14:13:56.018Z,18.90
2018-04-10T14:16:23.243Z,19.20
2018-04-10T14:18:49.674Z,19.20
2018-04-10T14:21:16.128Z,19.30
2018-04-10T14:23:42.516Z,19.40
2018-04-10T14:26:08.965Z,19.60
2018-04-10T14:28:35.483Z,19.70
2018-04-10T14:31:02.699Z,19.50
2018-04-10T14:33:29.217Z,19.50
2018-04-10T14:35:56.401Z,19.30
2018-04-10T14:38:22.945Z,19.20
2018-04-10T14:40:50.126Z,19.30
2018-04-10T14:43:16.638Z,19.20
2018-04-10T14:45:43.045Z,19.30
2018-04-10T14:48:09.490Z,19.20
2018-04-10T14:50:36.464Z,19.00
2018-04-10T14:53:02.946Z,18.90
2018-04-10T14:55:29.424Z,18.80
2018-04-10T14:57:56.026Z,18.70
2018-04-10T15:00:23.213Z,18.50
2018-04-10T15:02:49.708Z,18.50
2018-04-10T15:05:16.162Z,18.60
2018-04-10T15:07:42.670Z,18.70
2018-04-10T15:10:09.108Z,18.80
2018-04-10T15:12:36.348Z,18.90
2018-04-10T15:15:02.964Z,18.90
2018-04-10T15:17:29.484Z,18.90
2018-04-10T15:19:56.996Z,19.00
2018-04-10T15:22:24.270Z,19.00
2018-04-10T15:24:50.721Z,18.90
2018-04-10T15:27:17.892Z,19.00
2018-04-10T15:29:45.088Z,19.10
2018-04-10T15:32:11.532Z,19.10
2018-04-10T15:34:37.981Z,19.00
2018-04-10T15:37:05.181Z,18.80
2018-04-10T15:39:31.718Z,18.80
2018-04-10T15:41:58.148Z,18.70
2018-04-10T15:44:25.454Z,18.40
2018-04-10T15:46:51.967Z,18.40
2018-04-10T15:49:18.991Z,18.40
2018-04-10T15:51:45.530Z,18.30
2018-04-10T15:54:12.803Z,18.10
2018-04-10T15:56:39.983Z,18.00
2018-04-10T15:59:06.443Z,18.00
2018-04-10T16:01:33.609Z,17.90
2018-04-10T16:04:00.708Z,17.90
2018-04-10T16:06:27.235Z,17.80
2018-04-10T16:08:54.459Z,17.70
2018-04-10T16:11:21.263Z,17.70
2018-04-10T16:13:48.423Z,17.60
2018-04-10T16:16:14.869Z,17.60
2018-04-10T16:18:41.267Z,17.60
2018-04-10T16:21:07.879Z,17.50
2018-04-10T16:23:34.391Z,17.40
2018-04-10T16:26:00.923Z,17.40
2018-04-10T16:28:28.152Z,17.30
2018-04-10T16:30:54.864Z,17.30
2018-04-10T16:33:21.424Z,17.20
2018-04-10T16:35:47.898Z,17.20
2018-04-10T16:38:14.336Z,17.20
2018-04-10T16:40:40.892Z,17.10
2018-04-10T16:43:07.338Z,17.10
2018-04-10T16:45:34.583Z,17.10
2018-04-10T16:48:01.737Z,17.10
2018-04-10T16:50:28.185Z,17.10
2018-04-10T16:52:54.629Z,17.10
2018-04-10T16:55:21.048Z,17.00
2018-04-10T16:57:48.979Z,17.00
2018-04-10T17:00:15.624Z,16.90
2018-04-10T17:02:42.051Z,17.00
2018-04-10T17:05:09.243Z,16.80
2018-04-10T17:07:35.798Z,16.80
2018-04-10T17:10:02.394Z,16.80
2018-04-10T17:12:28.855Z,16.70
2018-04-10T17:14:55.448Z,16.70
2018-04-10T17:17:23.465Z,16.50
2018-04-10T17:19:50.033Z,16.50
2018-04-10T17:22:16.992Z,16.50
2018-04-10T17:24:43.548Z,16.40
2018-04-10T17:27:09.991Z,16.30
2018-04-10T17:29:37.256Z,16.20
2018-04-10T17:32:04.620Z,16.10
2018-04-10T17:34:31.322Z,16.00
2018-04-10T17:36:57.952Z,16.00
2018-04-10T17:39:24.438Z,15.90
2018-04-10T17:41:51.350Z,15.90
2018-04-10T17:44:18.849Z,15.80
2018-04-10T17:46:46.979Z,15.70
2018-04-10T17:49:13.840Z,15.70
2018-04-10T17:51:42.139Z,15.60
2018-04-10T17:54:09.209Z,15.50
2018-04-10T17:56:36.380Z,15.40
2018-04-10T17:59:06.621Z,15.40
2018-04-10T18:01:34.306Z,15.30
2018-04-10T18:04:01.395Z,15.30
2018-04-10T18:06:28.342Z,15.20
2018-04-10T18:08:55.512Z,15.10
2018-04-10T18:11:22.204Z,15.10
2018-04-10T18:13:49.040Z,15.00
2018-04-10T18:16:16.413Z,14.90
2018-04-10T18:18:43.958Z,14.80
2018-04-10T18:21:10.829Z,14.70
2018-04-10T18:23:38.549Z,14.60
2018-04-10T18:26:05.226Z,14.60
2018-04-10T18:28:33.818Z,14.50
2018-04-10T18:31:01.291Z,14.40
2018-04-10T18:33:28.557Z,14.40
2018-04-10T18:35:55.966Z,14.40
2018-04-10T18:38:22.499Z,14.40
2018-04-10T18:40:49.776Z,14.30
2018-04-10T18:43:16.336Z,14.30
2018-04-10T18:45:43.607Z,14.20
2018-04-10T18:48:12.447Z,14.10
2018-04-10T18:50:39.665Z,14.10
2018-04-10T18:53:06.759Z,14.10
2018-04-10T18:55:33.528Z,14.10
2018-04-10T18:58:01.491Z,14.00
2018-04-10T19:00:29.197Z,13.90
2018-04-10T19:02:56.677Z,13.90
2018-04-10T19:05:23.342Z,13.90
2018-04-10T19:07:50.102Z,13.80
2018-04-10T19:10:18.096Z,13.80
2018-04-10T19:12:46.080Z,13.80
2018-04-10T19:15:15.390Z,13.70
2018-04-10T19:17:43.907Z,13.70
2018-04-10T19:20:10.648Z,13.70
2018-04-10T19:22:39.376Z,13.60
2018-04-10T19:25:10.460Z,13.60
2018-04-10T19:27:37.808Z,13.50
2018-04-10T19:30:04.834Z,13.50
2018-04-10T19:32:33.833Z,13.50
2018-04-10T19:35:05.539Z,13.50
2018-04-10T19:37:34.292Z,13.50
2018-04-10T19:40:01.439Z,13.50
2018-04-10T19:42:28.820Z,13.40
2018-04-10T19:44:58.468Z,13.50
2018-04-10T19:47:27.418Z,13.40
2018-04-10T19:49:57.244Z,13.30
2018-04-10T19:52:25.180Z,13.30
2018-04-10T19:54:51.940Z,13.20
2018-04-10T19:57:19.213Z,13.20
2018-04-10T19:59:48.445Z,13.20
2018-04-10T20:02:15.369Z,13.20
2018-04-10T20:04:41.875Z,13.20
2018-04-10T20:07:08.393Z,13.10
2018-04-10T20:09:35.645Z,13.10
2018-04-10T20:12:03.130Z,13.10
2018-04-10T20:14:29.830Z,13.10
2018-04-10T20:16:56.372Z,13.10
2018-04-10T20:19:23.662Z,13.00
2018-04-10T20:21:50.932Z,13.00
2018-04-10T20:24:18.116Z,13.00
2018-04-10T20:26:45.113Z,13.00
2018-04-10T20:29:12.314Z,13.00
2018-04-10T20:31:38.806Z,12.90
2018-04-10T20:34:05.295Z,12.90
2018-04-10T20:36:31.732Z,12.90
2018-04-10T20:38:58.175Z,12.80
2018-04-10T20:41:25.586Z,12.80
2018-04-10T20:43:52.110Z,12.80
2018-04-10T20:46:18.562Z,12.80
2018-04-10T20:48:45.944Z,12.80
2018-04-10T20:51:13.220Z,12.80
2018-04-10T20:53:39.795Z,12.80
2018-04-10T20:56:06.334Z,12.80
2018-04-10T20:58:32.893Z,12.80
2018-04-10T21:01:00.169Z,12.80
2018-04-10T21:03:27.335Z,12.80
2018-04-10T21:05:54.593Z,12.80
2018-04-10T21:08:21.735Z,12.80
2018-04-10T21:10:48.201Z,12.80
2018-04-10T21:13:15.423Z,12.80
2018-04-10T21:15:41.850Z,12.80
2018-04-10T21:18:08.277Z,12.80
2018-04-10T21:20:34.736Z,12.70
2018-04-10T21:23:01.243Z,12.70
2018-04-10T21:25:28.522Z,12.60
2018-04-10T21:27:54.975Z,12.60
2018-04-10T21:30:22.189Z,12.50
2018-04-10T21:32:48.703Z,12.50
2018-04-10T21:35:15.870Z,12.50
2018-04-10T21:37:43.172Z,12.40
2018-04-10T21:40:09.601Z,12.40
2018-04-10T21:42:42.155Z,12.40
2018-04-10T21:45:08.581Z,12.30
2018-04-10T21:47:35.041Z,12.30
2018-04-10T21:50:01.456Z,12.30
2018-04-10T21:52:28.612Z,12.20
2018-04-10T21:54:55.097Z,12.20
2018-04-10T21:57:21.548Z,12.20
2018-04-10T21:59:48.702Z,12.10
2018-04-10T22:02:15.178Z,12.10
2018-04-10T22:04:42.316Z,12.00
2018-04-10T22:07:08.755Z,12.00
2018-04-10T22:09:35.212Z,12.00
2018-04-10T22:12:02.646Z,12.00
2018-04-10T22:14:29.814Z,12.00
2018-04-10T22:16:57.013Z,11.90
2018-04-10T22:19:23.437Z,11.90
2018-04-10T22:21:50.715Z,11.80
2018-04-10T22:24:17.882Z,11.70
2018-04-10T22:26:45.069Z,11.70
2018-04-10T22:29:11.558Z,11.70
2018-04-10T22:31:38.031Z,11.60
2018-04-10T22:34:04.501Z,11.60
2018-04-10T22:36:30.957Z,11.50
2018-04-10T22:38:57.439Z,11.50
2018-04-10T22:41:23.825Z,11.50
2018-04-10T22:43:50.324Z,11.50
2018-04-10T22:46:17.507Z,11.50
2018-04-10T22:48:44.003Z,11.50
2018-04-10T22:51:10.487Z,11.50
2018-04-10T22:53:36.941Z,11.50
2018-04-10T22:56:03.346Z,11.50
2018-04-10T22:58:29.795Z,11.50
2018-04-10T23:00:56.244Z,11.40
2018-04-10T23:03:22.680Z,11.40
2018-04-10T23:05:49.860Z,11.30
2018-04-10T23:08:17.044Z,11.30
2018-04-10T23:10:44.288Z,11.30
2018-04-10T23:13:10.788Z,11.30
2018-04-10T23:15:38.371Z,11.40
2018-04-10T23:18:05.651Z,11.40
2018-04-10T23:20:32.925Z,11.40
2018-04-10T23:23:00.202Z,11.30
2018-04-10T23:25:27.349Z,11.30
2018-04-10T23:27:53.834Z,11.30
2018-04-10T23:30:20.337Z,11.30
2018-04-10T23:32:46.854Z,11.30
2018-04-10T23:35:13.308Z,11.30
2018-04-10T23:37:40.508Z,11.20
2018-04-10T23:40:07.149Z,11.20
2018-04-10T23:42:33.558Z,11.30
2018-04-10T23:45:00.164Z,11.20
2018-04-10T23:47:26.639Z,11.20
2018-04-10T23:49:53.051Z,11.20
2018-04-10T23:52:19.441Z,11.10
2018-04-10T23:54:45.856Z,11.10
2018-04-10T23:57:13.010Z,11.10
2018-04-10T23:59:39.429Z,11.10
